createdAt,value
2023-01-11T00:00:48.104Z,1.83
2023-01-11T00:03:17.335Z,1.48
2023-01-11T00:05:45.248Z,1.53
2023-01-11T00:08:12.959Z,1.45
2023-01-11T00:10:40.357Z,1.30
2023-01-11T00:13:07.654Z,1.30
2023-01-11T00:15:36.312Z,1.25
2023-01-11T00:18:03.574Z,1.37
2023-01-11T00:20:30.495Z,1.52
2023-01-11T00:22:58.014Z,1.35
2023-01-11T00:25:25.022Z,1.17
2023-01-11T00:27:52.227Z,1.17
2023-01-11T00:30:19.543Z,1.20
2023-01-11T00:32:46.700Z,1.92
2023-01-11T00:35:14.043Z,1.85
2023-01-11T00:37:41.247Z,1.52
2023-01-11T00:40:10.104Z,1.98
2023-01-11T00:42:55.584Z,1.87
2023-01-11T00:45:40.993Z,2.03
2023-01-11T00:48:10.712Z,2.20
2023-01-11T00:50:40.242Z,2.72
2023-01-11T00:53:08.607Z,2.17
2023-01-11T00:55:36.626Z,2.10
2023-01-11T00:58:04.418Z,2.70
2023-01-11T01:00:32.148Z,2.53
2023-01-11T01:02:59.183Z,2.35
2023-01-11T01:05:26.592Z,1.98
2023-01-11T01:07:53.853Z,1.60
2023-01-11T01:10:21.081Z,1.37
2023-01-11T01:13:06.853Z,1.52
2023-01-11T01:15:34.133Z,1.37
2023-01-11T01:18:01.755Z,1.25
2023-01-11T01:20:29.005Z,1.17
2023-01-11T01:22:56.004Z,1.30
2023-01-11T01:25:22.978Z,1.12
2023-01-11T01:27:49.859Z,1.33
2023-01-11T01:30:17.296Z,1.50
2023-01-11T01:32:44.927Z,1.30
2023-01-11T01:35:11.798Z,1.40
2023-01-11T01:37:38.987Z,1.30
2023-01-11T01:40:07.151Z,1.60
2023-01-11T01:42:34.306Z,1.23
2023-01-11T01:45:25.433Z,1.23
2023-01-11T01:48:00.531Z,1.45
2023-01-11T01:50:33.083Z,1.35
2023-01-11T01:53:04.651Z,1.35
2023-01-11T01:55:38.452Z,1.30
2023-01-11T01:58:10.239Z,1.27
2023-01-11T02:00:42.512Z,1.50
2023-01-11T02:03:13.990Z,1.55
2023-01-11T02:05:41.177Z,1.20
2023-01-11T02:08:19.767Z,1.60
2023-01-11T02:10:47.169Z,1.77
2023-01-11T02:13:14.536Z,1.35
2023-01-11T02:15:41.709Z,1.40
2023-01-11T02:18:13.746Z,1.80
2023-01-11T02:20:49.695Z,1.50
2023-01-11T02:23:38.652Z,1.13
2023-01-11T02:26:36.851Z,1.50
2023-01-11T02:29:22.348Z,1.05
2023-01-11T02:32:19.147Z,1.20
2023-01-11T02:34:57.387Z,1.45
2023-01-11T02:37:45.963Z,1.30
2023-01-11T02:40:27.666Z,1.40
2023-01-11T02:43:37.634Z,1.25
2023-01-11T02:46:18.828Z,1.52
2023-01-11T02:49:31.803Z,1.50
2023-01-11T02:52:22.347Z,1.07
2023-01-11T02:54:54.561Z,1.30
2023-01-11T02:57:24.657Z,1.42
2023-01-11T02:59:51.996Z,1.35
2023-01-11T03:02:18.986Z,1.37
2023-01-11T03:04:46.133Z,1.73
2023-01-11T03:07:33.881Z,1.62
2023-01-11T03:10:23.113Z,1.42
2023-01-11T03:13:13.598Z,1.50
2023-01-11T03:16:08.545Z,1.50
2023-01-11T03:19:11.365Z,1.10
2023-01-11T03:21:54.584Z,1.00
2023-01-11T03:24:36.093Z,1.45
2023-01-11T03:27:42.836Z,1.45
2023-01-11T03:30:25.650Z,1.75
2023-01-11T03:33:04.761Z,1.53
2023-01-11T03:35:44.154Z,1.52
2023-01-11T03:38:24.675Z,2.40
2023-01-11T03:40:57.177Z,2.92
2023-01-11T03:43:25.759Z,1.83
2023-01-11T03:45:52.663Z,2.70
2023-01-11T03:48:34.749Z,3.15
2023-01-11T03:51:05.293Z,3.60
2023-01-11T03:53:35.812Z,3.37
2023-01-11T03:56:07.215Z,3.97
2023-01-11T03:58:34.754Z,4.43
2023-01-11T04:01:03.301Z,11.32
2023-01-11T04:03:30.365Z,4.30
2023-01-11T04:06:01.124Z,3.60
2023-01-11T04:08:28.518Z,3.08
2023-01-11T04:10:55.889Z,3.20
2023-01-11T04:13:23.092Z,3.15
2023-01-11T04:15:50.391Z,2.95
2023-01-11T04:18:17.322Z,3.85
2023-01-11T04:20:47.062Z,3.70
2023-01-11T04:23:15.249Z,3.10
2023-01-11T04:25:42.608Z,3.70
2023-01-11T04:28:09.568Z,2.75
2023-01-11T04:30:37.251Z,3.78
2023-01-11T04:33:04.646Z,3.87
2023-01-11T04:35:31.591Z,2.87
2023-01-11T04:37:59.266Z,3.72
2023-01-11T04:40:26.449Z,3.50
2023-01-11T04:42:54.161Z,3.62
2023-01-11T04:45:21.079Z,3.15
2023-01-11T04:47:54.786Z,3.00
2023-01-11T04:50:21.698Z,3.45
2023-01-11T04:52:48.627Z,3.20
2023-01-11T04:55:15.462Z,3.80
2023-01-11T04:57:44.285Z,3.83
2023-01-11T05:00:13.240Z,3.93
2023-01-11T05:02:40.501Z,3.62
2023-01-11T05:05:08.364Z,3.35
2023-01-11T05:07:35.774Z,3.20
2023-01-11T05:10:04.216Z,2.83
2023-01-11T05:12:31.330Z,3.10
2023-01-11T05:14:59.260Z,3.08
2023-01-11T05:17:26.292Z,3.53
2023-01-11T05:19:53.626Z,4.40
2023-01-11T05:22:20.945Z,3.60
2023-01-11T05:24:48.036Z,3.60
2023-01-11T05:27:15.348Z,7.07
2023-01-11T05:29:44.340Z,4.57
2023-01-11T05:32:13.127Z,8.48
2023-01-11T05:34:40.145Z,5.05
2023-01-11T05:37:07.368Z,4.17
2023-01-11T05:39:34.766Z,3.90
2023-01-11T05:42:01.776Z,3.85
2023-01-11T05:44:47.355Z,3.30
2023-01-11T05:47:14.584Z,3.60
2023-01-11T05:49:41.814Z,3.83
2023-01-11T05:52:09.144Z,4.00
2023-01-11T05:54:37.092Z,4.10
2023-01-11T05:57:04.407Z,4.10
2023-01-11T05:59:32.273Z,5.45
2023-01-11T06:01:59.994Z,8.33
2023-01-11T06:04:27.659Z,14.30
2023-01-11T06:06:54.995Z,9.60
2023-01-11T06:09:22.075Z,7.57
2023-01-11T06:11:50.658Z,5.72
2023-01-11T06:14:17.602Z,6.03
2023-01-11T06:16:44.616Z,6.55
2023-01-11T06:19:12.578Z,5.95
2023-01-11T06:21:39.917Z,5.40
2023-01-11T06:24:07.478Z,5.30
2023-01-11T06:26:34.356Z,4.50
2023-01-11T06:29:01.569Z,4.60
2023-01-11T06:31:28.637Z,4.90
2023-01-11T06:33:55.804Z,5.40
2023-01-11T06:36:22.750Z,4.50
2023-01-11T06:38:50.193Z,4.57
2023-01-11T06:41:17.498Z,4.07
2023-01-11T06:43:44.610Z,4.45
2023-01-11T06:46:16.605Z,4.40
2023-01-11T06:48:44.708Z,4.85
2023-01-11T06:51:12.639Z,4.57
2023-01-11T06:53:41.275Z,4.87
2023-01-11T06:56:15.481Z,5.18
2023-01-11T06:58:43.953Z,5.80
2023-01-11T07:01:12.449Z,3.83
2023-01-11T07:03:41.716Z,4.03
2023-01-11T07:06:10.137Z,4.25
2023-01-11T07:08:38.385Z,4.40
2023-01-11T07:11:06.027Z,3.85
2023-01-11T07:13:33.031Z,3.83
2023-01-11T07:16:00.354Z,4.77
2023-01-11T07:18:27.579Z,5.62
2023-01-11T07:20:55.288Z,5.47
2023-01-11T07:23:22.567Z,7.22
2023-01-11T07:25:50.164Z,13.38
2023-01-11T07:28:17.488Z,14.53
2023-01-11T07:30:57.636Z,10.73
2023-01-11T07:33:28.222Z,7.35
2023-01-11T07:35:55.863Z,7.62
2023-01-11T07:38:23.208Z,7.90
2023-01-11T07:40:50.499Z,6.63
2023-01-11T07:43:23.251Z,5.87
2023-01-11T07:45:52.556Z,4.40
2023-01-11T07:48:26.137Z,4.70
2023-01-11T07:50:54.104Z,3.60
2023-01-11T07:53:25.576Z,4.70
2023-01-11T07:55:55.538Z,5.10
2023-01-11T07:58:22.943Z,4.43
2023-01-11T08:00:50.334Z,4.72
2023-01-11T08:03:17.862Z,5.20
2023-01-11T08:05:52.705Z,4.53
2023-01-11T08:08:20.485Z,4.00
2023-01-11T08:10:47.737Z,4.00
2023-01-11T08:13:37.061Z,4.00
2023-01-11T08:16:04.853Z,2.70
2023-01-11T08:18:32.052Z,1.90
2023-01-11T08:20:59.049Z,2.20
2023-01-11T08:23:27.235Z,1.80
2023-01-11T08:25:57.943Z,2.37
2023-01-11T08:28:24.891Z,2.58
2023-01-11T08:30:52.008Z,1.73
2023-01-11T08:33:19.049Z,2.55
2023-01-11T08:35:46.264Z,3.00
2023-01-11T08:38:13.227Z,2.40
2023-01-11T08:40:40.675Z,2.70
2023-01-11T08:43:07.547Z,2.83
2023-01-11T08:45:34.406Z,2.92
2023-01-11T08:48:01.592Z,2.92
2023-01-11T08:50:28.649Z,2.50
2023-01-11T08:52:57.191Z,3.05
2023-01-11T08:55:24.497Z,2.70
2023-01-11T08:57:51.731Z,2.55
2023-01-11T09:00:19.602Z,3.28
2023-01-11T09:02:46.628Z,2.67
2023-01-11T09:05:13.960Z,3.28
2023-01-11T09:07:41.034Z,2.80
2023-01-11T09:10:08.497Z,2.75
2023-01-11T09:12:35.557Z,3.20
2023-01-11T09:15:02.956Z,2.92
2023-01-11T09:17:31.219Z,2.87
2023-01-11T09:19:59.151Z,2.20
2023-01-11T09:22:27.541Z,2.35
2023-01-11T09:24:55.665Z,2.05
2023-01-11T09:27:22.943Z,2.17
2023-01-11T09:29:50.561Z,2.15
2023-01-11T09:32:17.929Z,2.10
2023-01-11T09:34:46.894Z,1.87
2023-01-11T09:37:14.524Z,1.77
2023-01-11T09:39:42.300Z,2.10
2023-01-11T09:42:40.778Z,2.05
2023-01-11T09:45:19.414Z,1.80
2023-01-11T09:48:03.728Z,1.58
2023-01-11T09:50:39.967Z,1.70
2023-01-11T09:53:11.404Z,1.65
2023-01-11T09:55:46.878Z,1.60
2023-01-11T09:58:29.451Z,1.60
2023-01-11T10:01:08.477Z,1.73
2023-01-11T10:03:44.857Z,1.90
2023-01-11T10:06:30.659Z,1.70
2023-01-11T10:18:25.680Z,1.80
2023-01-11T10:19:31.562Z,1.80
2023-01-11T10:21:58.307Z,1.35
2023-01-11T10:24:30.265Z,1.80
2023-01-11T10:27:02.290Z,1.73
2023-01-11T10:29:53.410Z,1.50
2023-01-11T10:32:55.795Z,1.50
2023-01-11T10:35:44.411Z,1.75
2023-01-11T10:38:50.412Z,1.37
2023-01-11T10:41:49.697Z,1.70
2023-01-11T10:44:24.578Z,1.50
2023-01-11T10:46:53.871Z,1.60
2023-01-11T10:49:49.944Z,2.08
2023-01-11T10:52:35.597Z,1.52
2023-01-11T10:55:13.072Z,1.50
2023-01-11T10:58:00.405Z,1.50
2023-01-11T11:00:35.461Z,1.60
2023-01-11T11:03:57.109Z,1.65
2023-01-11T11:06:56.215Z,1.25
2023-01-11T11:09:44.809Z,2.17
2023-01-11T11:12:35.101Z,1.25
2023-01-11T11:15:02.010Z,1.52
2023-01-11T11:17:35.437Z,2.10
2023-01-11T11:20:16.487Z,1.70
2023-01-11T11:22:45.153Z,1.80
2023-01-11T11:25:29.695Z,2.20
2023-01-11T11:28:22.681Z,1.87
2023-01-11T11:30:53.561Z,2.05
2023-01-11T11:33:24.003Z,2.50
2023-01-11T11:36:00.155Z,2.00
2023-01-11T11:38:35.393Z,1.92
2023-01-11T11:41:10.176Z,2.05
2023-01-11T11:43:47.868Z,1.80
2023-01-11T11:46:18.753Z,2.55
2023-01-11T11:49:15.741Z,2.00
2023-01-11T11:51:45.735Z,1.60
2023-01-11T11:54:33.995Z,1.73
2023-01-11T11:57:15.595Z,1.70
2023-01-11T11:59:47.615Z,1.23
2023-01-11T12:02:30.364Z,1.77
2023-01-11T12:05:00.366Z,1.30
2023-01-11T12:07:40.396Z,1.80
2023-01-11T12:10:17.125Z,1.37
2023-01-11T12:12:53.300Z,1.17
2023-01-11T12:15:24.407Z,1.63
2023-01-11T12:17:51.810Z,1.30
2023-01-11T12:20:32.703Z,1.55
2023-01-11T12:23:24.349Z,1.30
2023-01-11T12:26:03.411Z,1.62
2023-01-11T12:28:42.820Z,1.40
2023-01-11T12:31:12.476Z,1.20
2023-01-11T12:33:45.331Z,1.90
2023-01-11T12:36:35.143Z,1.42
2023-01-11T12:39:41.976Z,1.30
2023-01-11T12:42:33.723Z,1.10
2023-01-11T12:45:00.610Z,1.70
2023-01-11T12:47:48.975Z,1.75
2023-01-11T12:50:25.896Z,1.27
2023-01-11T12:53:11.414Z,1.67
2023-01-11T12:56:06.135Z,1.33
2023-01-11T12:58:49.963Z,1.80
2023-01-11T13:01:36.829Z,1.40
2023-01-11T13:04:30.339Z,1.33
2023-01-11T13:07:22.262Z,1.50
2023-01-11T13:09:55.721Z,1.37
2023-01-11T13:12:25.850Z,1.37
2023-01-11T13:15:24.280Z,1.40
2023-01-11T13:18:02.151Z,1.25
2023-01-11T13:20:58.765Z,1.52
2023-01-11T13:23:33.087Z,1.50
2023-01-11T13:26:25.261Z,1.73
2023-01-11T13:29:03.708Z,1.62
2023-01-11T13:31:35.130Z,1.40
2023-01-11T13:34:08.558Z,1.50
2023-01-11T13:36:44.107Z,1.37
2023-01-11T13:39:20.947Z,1.23
2023-01-11T13:41:52.189Z,1.55
2023-01-11T13:44:19.368Z,1.40
2023-01-11T13:47:07.709Z,1.35
2023-01-11T13:49:49.424Z,1.50
2023-01-11T13:52:42.027Z,1.55
2023-01-11T13:55:28.114Z,1.50
2023-01-11T13:58:23.391Z,1.50
2023-01-11T14:01:14.016Z,1.27
2023-01-11T14:04:05.387Z,1.30
2023-01-11T14:06:45.172Z,1.50
2023-01-11T14:09:36.574Z,1.50
2023-01-11T14:12:42.513Z,1.50
2023-01-11T14:15:20.290Z,1.40
2023-01-11T14:18:29.239Z,1.50
2023-01-11T14:21:08.702Z,1.60
2023-01-11T14:23:55.287Z,1.55
2023-01-11T14:26:49.873Z,1.60
2023-01-11T14:29:50.989Z,1.75
2023-01-11T14:32:50.108Z,1.50
2023-01-11T14:35:49.625Z,1.90
2023-01-11T14:38:35.227Z,1.80
2023-01-11T14:41:26.493Z,1.70
2023-01-11T14:44:11.296Z,1.92
2023-01-11T14:46:59.135Z,1.47
2023-01-11T14:49:57.842Z,1.80
2023-01-11T14:52:39.982Z,3.12
2023-01-11T14:55:23.112Z,2.53
2023-01-11T14:57:55.674Z,3.20
2023-01-11T15:00:23.478Z,2.63
2023-01-11T15:03:18.124Z,2.40
2023-01-11T15:05:48.877Z,2.72
2023-01-11T15:08:15.786Z,2.40
2023-01-11T15:10:51.490Z,2.83
2023-01-11T15:13:49.547Z,2.60
2023-01-11T15:16:37.615Z,3.20
2023-01-11T15:19:07.858Z,2.87
2023-01-11T15:21:41.612Z,3.28
2023-01-11T15:24:41.180Z,2.65
2023-01-11T15:27:33.695Z,3.47
2023-01-11T15:30:11.506Z,6.90
2023-01-11T15:32:41.517Z,6.85
2023-01-11T15:35:20.577Z,5.90
2023-01-11T15:38:15.410Z,9.32
2023-01-11T15:40:46.495Z,7.10
2023-01-11T15:44:05.515Z,6.75
2023-01-11T15:46:51.114Z,6.93
2023-01-11T15:49:27.062Z,7.62
2023-01-11T15:52:03.048Z,7.20
2023-01-11T15:54:35.484Z,6.67
2023-01-11T15:57:20.963Z,5.62
2023-01-11T16:00:01.819Z,6.12
2023-01-11T16:02:42.264Z,6.03
2023-01-11T16:05:21.391Z,6.68
2023-01-11T16:08:10.724Z,6.60
2023-01-11T16:10:51.646Z,6.78
2023-01-11T16:13:38.885Z,7.47
2023-01-11T16:16:24.602Z,6.85
2023-01-11T16:19:04.515Z,6.97
2023-01-11T16:21:40.475Z,8.30
2023-01-11T16:24:17.393Z,8.18
2023-01-11T16:26:49.474Z,8.52
2023-01-11T16:29:25.864Z,9.45
2023-01-11T16:31:57.667Z,9.90
2023-01-11T16:34:28.093Z,11.67
2023-01-11T16:36:56.270Z,12.25
2023-01-11T16:39:27.506Z,12.45
2023-01-11T16:42:00.620Z,15.20
2023-01-11T16:45:05.803Z,11.02
2023-01-11T16:47:32.727Z,8.77
2023-01-11T16:50:11.038Z,7.90
2023-01-11T16:52:44.523Z,8.48
2023-01-11T16:55:22.840Z,7.47
2023-01-11T16:57:53.797Z,10.80
2023-01-11T17:00:32.294Z,11.17
2023-01-11T17:03:25.910Z,13.62
2023-01-11T17:06:13.027Z,14.77
2023-01-11T17:08:41.307Z,13.13
2023-01-11T17:11:14.259Z,12.20
2023-01-11T17:13:53.768Z,11.30
2023-01-11T17:16:29.139Z,11.93
2023-01-11T17:19:01.111Z,12.18
2023-01-11T17:21:29.522Z,13.15
2023-01-11T17:24:03.410Z,14.82
2023-01-11T17:26:48.904Z,15.77
2023-01-11T17:29:38.360Z,17.77
2023-01-11T17:32:11.871Z,17.08
2023-01-11T17:34:39.411Z,16.62
2023-01-11T17:37:11.587Z,15.45
2023-01-11T17:39:44.695Z,20.33
2023-01-11T17:42:33.830Z,21.17
2023-01-11T17:45:20.818Z,22.62
2023-01-11T17:47:51.687Z,21.52
2023-01-11T17:50:27.600Z,42.97
2023-01-11T17:53:24.276Z,21.10
2023-01-11T17:55:54.038Z,18.15
2023-01-11T17:58:20.982Z,37.25
2023-01-11T18:01:10.257Z,57.72
2023-01-11T18:03:46.044Z,64.25
2023-01-11T18:06:21.399Z,37.27
2023-01-11T18:08:52.535Z,39.47
2023-01-11T18:11:33.244Z,30.02
2023-01-11T18:14:02.811Z,29.75
2023-01-11T18:16:30.050Z,29.63
2023-01-11T18:18:57.893Z,21.17
2023-01-11T18:22:02.911Z,16.15
2023-01-11T18:24:33.859Z,13.38
2023-01-11T18:27:30.206Z,14.68
2023-01-11T18:30:01.228Z,15.85
2023-01-11T18:32:36.095Z,15.77
2023-01-11T18:35:04.151Z,16.35
2023-01-11T18:37:31.651Z,14.52
2023-01-11T18:39:59.489Z,14.75
2023-01-11T18:42:30.212Z,14.82
2023-01-11T18:44:57.735Z,14.47
2023-01-11T18:47:28.475Z,14.43
2023-01-11T18:49:56.261Z,12.30
2023-01-11T18:52:27.690Z,16.75
2023-01-11T18:54:56.215Z,15.60
2023-01-11T18:57:24.651Z,15.50
2023-01-11T18:59:57.019Z,16.33
2023-01-11T19:02:32.029Z,15.05
2023-01-11T19:04:59.412Z,14.13
2023-01-11T19:07:28.183Z,14.98
2023-01-11T19:09:55.498Z,15.57
2023-01-11T19:12:23.922Z,16.70
2023-01-11T19:14:52.197Z,17.25
2023-01-11T19:17:19.740Z,17.45
2023-01-11T19:19:47.707Z,17.98
2023-01-11T19:22:15.755Z,20.40
2023-01-11T19:24:43.687Z,20.83
2023-01-11T19:27:13.680Z,22.87
2023-01-11T19:29:42.485Z,20.42
2023-01-11T19:32:10.749Z,19.45
2023-01-11T19:34:40.225Z,20.93
2023-01-11T19:37:08.089Z,22.05
2023-01-11T19:39:36.540Z,20.95
2023-01-11T19:42:03.804Z,20.12
2023-01-11T19:44:33.505Z,22.30
2023-01-11T19:47:11.659Z,20.37
2023-01-11T19:49:41.255Z,24.15
2023-01-11T19:52:14.720Z,24.25
2023-01-11T19:54:42.994Z,24.37
2023-01-11T19:57:15.955Z,22.23
2023-01-11T19:59:43.483Z,22.57
2023-01-11T20:02:18.098Z,18.33
2023-01-11T20:04:47.730Z,16.83
2023-01-11T20:07:15.648Z,13.98
2023-01-11T20:09:44.800Z,10.60
2023-01-11T20:12:15.522Z,9.63
2023-01-11T20:14:44.859Z,10.55
2023-01-11T20:17:13.266Z,9.52
2023-01-11T20:19:43.301Z,10.25
2023-01-11T20:22:11.272Z,9.38
2023-01-11T20:24:38.676Z,9.27
2023-01-11T20:27:06.007Z,9.43
2023-01-11T20:29:33.953Z,10.43
2023-01-11T20:32:21.156Z,9.38
2023-01-11T20:34:48.883Z,9.85
2023-01-11T20:37:16.958Z,10.37
2023-01-11T20:39:45.169Z,10.50
2023-01-11T20:42:12.699Z,11.48
2023-01-11T20:44:40.284Z,11.30
2023-01-11T20:47:07.523Z,10.98
2023-01-11T20:49:35.853Z,11.47
2023-01-11T20:52:03.159Z,11.55
2023-01-11T20:54:30.996Z,12.40
2023-01-11T20:57:02.207Z,12.40
2023-01-11T20:59:32.339Z,11.65
2023-01-11T21:01:59.699Z,10.60
2023-01-11T21:04:26.563Z,11.40
2023-01-11T21:06:53.493Z,10.65
2023-01-11T21:09:20.525Z,10.40
2023-01-11T21:11:53.207Z,11.80
2023-01-11T21:14:21.761Z,10.97
2023-01-11T21:16:48.755Z,10.23
2023-01-11T21:19:16.129Z,10.63
2023-01-11T21:21:43.478Z,9.93
2023-01-11T21:24:14.131Z,11.00
2023-01-11T21:26:42.540Z,10.60
2023-01-11T21:29:11.705Z,10.30
2023-01-11T21:31:40.245Z,9.25
2023-01-11T21:34:09.687Z,10.52
2023-01-11T21:36:36.566Z,10.63
2023-01-11T21:39:04.383Z,9.43
2023-01-11T21:41:52.201Z,10.93
2023-01-11T21:44:20.382Z,10.20
2023-01-11T21:46:47.284Z,9.85
2023-01-11T21:49:15.284Z,10.48
2023-01-11T21:51:43.117Z,10.30
2023-01-11T21:54:15.212Z,10.73
2023-01-11T21:56:42.130Z,11.30
2023-01-11T21:59:09.899Z,11.95
2023-01-11T22:01:45.918Z,12.57
2023-01-11T22:04:14.903Z,11.10
2023-01-11T22:06:45.448Z,12.40
2023-01-11T22:09:12.561Z,14.43
2023-01-11T22:11:40.074Z,13.77
2023-01-11T22:14:08.697Z,15.88
2023-01-11T22:16:37.090Z,17.30
2023-01-11T22:19:07.444Z,18.95
2023-01-11T22:21:36.038Z,16.60
2023-01-11T22:24:03.669Z,15.73
2023-01-11T22:26:33.545Z,15.55
2023-01-11T22:29:12.902Z,15.80
2023-01-11T22:31:43.725Z,16.58
2023-01-11T22:34:11.726Z,16.20
2023-01-11T22:36:38.630Z,16.58
2023-01-11T22:39:06.385Z,17.83
2023-01-11T22:41:33.240Z,22.40
2023-01-11T22:44:00.206Z,21.67
2023-01-11T22:46:28.331Z,21.75
2023-01-11T22:48:55.340Z,20.42
2023-01-11T22:51:24.671Z,19.35
2023-01-11T22:53:53.207Z,19.80
2023-01-11T22:56:24.948Z,26.17
2023-01-11T22:58:56.549Z,25.30
2023-01-11T23:01:37.271Z,25.75
2023-01-11T23:04:05.975Z,22.05
2023-01-11T23:06:38.160Z,22.30
2023-01-11T23:09:11.166Z,19.17
2023-01-11T23:11:58.524Z,20.02
2023-01-11T23:14:30.927Z,18.17
2023-01-11T23:17:01.823Z,17.95
2023-01-11T23:19:28.752Z,17.90
2023-01-11T23:21:55.946Z,16.87
2023-01-11T23:24:22.975Z,17.08
2023-01-11T23:26:49.925Z,18.00
2023-01-11T23:29:16.816Z,17.35
2023-01-11T23:31:44.109Z,17.80
2023-01-11T23:34:12.094Z,19.75
2023-01-11T23:36:41.173Z,20.48
2023-01-11T23:39:13.681Z,18.40
2023-01-11T23:41:59.333Z,18.45
2023-01-11T23:44:26.478Z,19.10
2023-01-11T23:47:11.961Z,19.87
2023-01-11T23:49:38.923Z,18.20
2023-01-11T23:52:06.434Z,17.92
2023-01-11T23:54:34.341Z,18.55
2023-01-11T23:57:02.999Z,15.70
2023-01-11T23:59:30.555Z,15.32
